North Platte Regional Airport Lee Bird Field
KLBF : now visible

Airfield :











YOU CAN JOIN US ON...

 
LOGIN :

Register | Disclaimer

   EN    FR    IT 

 









Legend :    VFR   Marginal VFR   IFR   Intensive IFR   Very Intensive IFR
Visi :
Ceiling :
>= 8 km
>= 3000ft
5 to 8 km
1000 to 3000 ft
1500m to 5 km
500 to 1000 ft
800 to 1500m
200 to 500 ft
< 800m
< 200 ft
Symbols :   Thunderstorms  Fog  Heavy snow  Heavy precipitations  Wind > 20 kt






- Airport Elevation : 2777 ft
- IATA code : LBF


KLBF - North Platte Regional Lee Bird Field

CURRENT METAR :
  • 240453Z AUTO 00000KT 10SM CLR 13/09 A2993 RMK AO2 SLP114 T01330089

EXPIRED METARs :
  • 240353Z AUTO 34003KT 10SM CLR 14/08 A2993 RMK AO2 SLP119 T01390083
  • 240253Z AUTO 14003KT 10SM CLR 16/09 A2993 RMK AO2 SLP122 T01610094 51010

TAF KLBF
Valid from the 24 at 00:00 until the 25 at 00:00 UTC


232320Z 2400/2424 27007KT P6SM FEW120 FEW250
FM240500 34005KT P6SM FEW250
FM241800 19006KT P6SM FEW250
KZDV FIR / North America



MET'MAP, your aeronautical weather chart ! - Copyright ORBIFLY December 2007 - Disclaimer

ORBIFLY MET'MAP TEAM :

Programming & Development : Alexandra Zaïnal
Concept & original design : Baudouin d'Aumeries
Assistance for programming : Marc-Olivier Méhu
Technical & hardware support : Manuel Goepfert

Contact : metmap@orbifly.com




SOURCES & CREDITS :

   NOAA       Earth
Advisory